createdAt,value
2023-02-26T00:03:16.423Z,0.73
2023-02-26T00:08:24.833Z,0.56
2023-02-26T00:13:30.460Z,0.64
2023-02-26T00:18:36.118Z,0.49
2023-02-26T00:23:44.667Z,0.47
2023-02-26T00:28:50.675Z,0.69
2023-02-26T00:33:57.536Z,0.40
2023-02-26T00:39:14.565Z,0.53
2023-02-26T00:44:20.215Z,0.42
2023-02-26T00:49:32.164Z,0.38
2023-02-26T00:54:39.590Z,0.64
2023-02-26T00:59:44.461Z,0.39
2023-02-26T01:04:49.926Z,0.58
2023-02-26T01:09:58.234Z,0.44
2023-02-26T01:15:03.682Z,0.48
2023-02-26T01:20:15.756Z,0.31
2023-02-26T01:25:30.087Z,0.35
2023-02-26T01:30:35.729Z,0.40
2023-02-26T01:35:45.695Z,0.23
2023-02-26T01:41:26.174Z,0.08
2023-02-26T01:46:39.817Z,0.29
2023-02-26T01:51:48.398Z,0.39
2023-02-26T01:56:58.688Z,0.25
2023-02-26T02:02:15.080Z,0.09
2023-02-26T02:07:21.761Z,-0.07
2023-02-26T02:12:37.361Z,0.28
2023-02-26T02:17:53.990Z,0.26
2023-02-26T02:23:15.750Z,0.10
2023-02-26T02:28:34.391Z,0.07
2023-02-26T02:33:48.522Z,0.09
2023-02-26T02:38:59.185Z,0.00
2023-02-26T02:44:07.876Z,0.25
2023-02-26T02:49:25.145Z,0.05
2023-02-26T02:54:37.577Z,0.34
2023-02-26T02:59:47.286Z,0.26
2023-02-26T03:04:55.419Z,0.22
2023-02-26T03:10:00.676Z,-0.02
2023-02-26T03:15:06.275Z,0.09
2023-02-26T03:20:24.141Z,0.37
2023-02-26T03:25:32.442Z,0.34
2023-02-26T03:30:42.222Z,0.10
2023-02-26T03:35:58.266Z,0.16
2023-02-26T03:41:07.959Z,0.13
2023-02-26T03:46:18.856Z,0.25
2023-02-26T03:51:29.816Z,0.27
2023-02-26T03:56:52.575Z,0.12
2023-02-26T04:02:37.399Z,-0.07
2023-02-26T04:07:53.027Z,0.08
2023-02-26T04:13:02.324Z,-0.03
2023-02-26T04:18:07.825Z,0.11
2023-02-26T04:23:15.754Z,0.22
2023-02-26T04:28:22.488Z,0.23
2023-02-26T04:33:28.028Z,0.24
2023-02-26T04:38:36.098Z,0.36
2023-02-26T04:43:42.484Z,0.36
2023-02-26T04:49:02.542Z,0.07
2023-02-26T04:54:10.865Z,0.13
2023-02-26T04:59:16.245Z,0.21
2023-02-26T05:04:21.496Z,0.07
2023-02-26T05:09:33.860Z,0.02
2023-02-26T05:14:38.738Z,0.16
2023-02-26T05:19:43.718Z,0.16
2023-02-26T05:24:51.566Z,0.09
2023-02-26T05:29:56.531Z,0.31
2023-02-26T05:35:02.284Z,-0.01
2023-02-26T05:40:12.697Z,0.14
2023-02-26T05:45:17.724Z,0.21
2023-02-26T05:50:22.881Z,0.12
2023-02-26T05:55:30.526Z,0.15
2023-02-26T06:00:35.445Z,0.10
2023-02-26T06:05:40.538Z,0.13
2023-02-26T06:10:48.082Z,0.23
2023-02-26T06:15:54.495Z,0.27
2023-02-26T06:20:59.739Z,0.27
2023-02-26T06:26:08.224Z,0.16
2023-02-26T06:31:13.147Z,0.15
2023-02-26T06:36:18.137Z,-0.25
2023-02-26T06:41:25.993Z,0.00
2023-02-26T06:46:30.988Z,0.34
2023-02-26T06:51:37.742Z,0.53
2023-02-26T06:56:45.488Z,0.40
2023-02-26T07:01:51.534Z,0.42
2023-02-26T07:06:56.912Z,0.39
2023-02-26T07:12:04.427Z,0.69
2023-02-26T07:17:09.693Z,0.36
2023-02-26T07:22:15.103Z,0.45
2023-02-26T07:27:22.692Z,0.24
2023-02-26T07:32:27.627Z,0.63
2023-02-26T07:37:32.523Z,0.68
2023-02-26T07:42:40.038Z,0.82
2023-02-26T07:47:44.945Z,0.99
2023-02-26T07:52:52.510Z,1.07
2023-02-26T07:58:00.397Z,0.84
2023-02-26T08:03:05.312Z,0.88
2023-02-26T08:08:10.270Z,1.29
2023-02-26T08:13:18.042Z,0.80
2023-02-26T08:18:23.383Z,1.02
2023-02-26T08:23:29.033Z,0.65
2023-02-26T08:28:38.015Z,1.01
2023-02-26T08:33:43.578Z,1.10
2023-02-26T08:38:48.522Z,0.76
2023-02-26T08:43:58.301Z,0.79
2023-02-26T08:49:03.413Z,1.16
2023-02-26T08:54:09.114Z,0.97
2023-02-26T08:59:19.209Z,0.93
2023-02-26T09:04:24.169Z,0.96
2023-02-26T09:09:29.327Z,1.51
2023-02-26T09:14:36.861Z,1.35
2023-02-26T09:19:41.805Z,1.30
2023-02-26T09:24:46.775Z,1.40
2023-02-26T09:29:54.214Z,2.47
2023-02-26T09:34:59.210Z,1.93
2023-02-26T09:40:04.120Z,2.21
2023-02-26T09:45:20.751Z,1.77
2023-02-26T09:50:31.553Z,1.86
2023-02-26T09:55:43.719Z,2.49
2023-02-26T10:00:59.755Z,2.40
2023-02-26T10:06:20.238Z,2.18
2023-02-26T10:11:33.851Z,1.85
2023-02-26T10:16:50.173Z,2.00
2023-02-26T10:22:00.529Z,2.03
2023-02-26T10:27:12.350Z,2.81
2023-02-26T10:32:29.347Z,2.85
2023-02-26T10:37:47.059Z,3.62
2023-02-26T10:42:57.106Z,3.63
2023-02-26T10:48:17.814Z,3.11
2023-02-26T10:53:24.352Z,3.91
2023-02-26T10:58:29.897Z,4.77
2023-02-26T11:03:41.920Z,4.85
2023-02-26T11:08:49.344Z,5.16
2023-02-26T11:13:56.053Z,5.57
2023-02-26T11:19:04.851Z,4.86
2023-02-26T11:24:14.724Z,4.95
2023-02-26T11:29:23.484Z,4.95
2023-02-26T11:34:35.967Z,5.09
2023-02-26T11:39:42.125Z,4.50
2023-02-26T11:44:50.541Z,3.92
2023-02-26T11:50:04.707Z,4.68
2023-02-26T11:55:30.427Z,4.29
2023-02-26T12:00:40.503Z,3.77
2023-02-26T12:05:48.598Z,4.13
2023-02-26T12:11:07.270Z,4.24
2023-02-26T12:16:22.896Z,4.41
2023-02-26T12:21:49.088Z,3.86
2023-02-26T12:27:01.367Z,3.75
2023-02-26T12:32:29.609Z,4.80
2023-02-26T12:37:53.090Z,4.22
2023-02-26T12:43:04.977Z,3.76
2023-02-26T12:48:42.728Z,3.78
2023-02-26T12:54:06.805Z,3.35
2023-02-26T12:59:27.790Z,3.98
2023-02-26T13:04:45.905Z,3.43
2023-02-26T13:10:04.310Z,3.59
2023-02-26T13:15:28.540Z,4.76
2023-02-26T13:20:36.185Z,4.62
2023-02-26T13:25:51.149Z,3.97
2023-02-26T13:31:02.654Z,0.73
2023-02-26T13:36:11.589Z,0.58
2023-02-26T13:41:30.636Z,1.18
2023-02-26T13:46:50.890Z,2.06
2023-02-26T13:51:57.708Z,2.26
2023-02-26T13:57:37.046Z,2.53
2023-02-26T14:02:51.256Z,2.60
2023-02-26T14:08:11.171Z,3.31
2023-02-26T14:13:26.337Z,3.48
2023-02-26T14:18:38.180Z,3.42
2023-02-26T14:23:45.200Z,3.97
2023-02-26T14:29:10.399Z,4.11
2023-02-26T14:34:18.281Z,4.99
2023-02-26T14:39:34.931Z,4.11
2023-02-26T14:44:50.666Z,2.05
2023-02-26T14:50:00.527Z,0.44
2023-02-26T14:55:33.541Z,1.28
2023-02-26T15:00:49.739Z,2.26
2023-02-26T15:06:11.195Z,2.16
2023-02-26T15:11:42.137Z,2.39
2023-02-26T15:17:03.466Z,2.45
2023-02-26T15:22:26.033Z,2.08
2023-02-26T15:27:36.729Z,2.41
2023-02-26T15:32:49.428Z,2.50
2023-02-26T15:37:57.849Z,1.94
2023-02-26T15:43:04.968Z,2.38
2023-02-26T15:48:17.696Z,2.14
2023-02-26T15:53:30.488Z,2.23
2023-02-26T15:58:43.152Z,2.28
2023-02-26T16:03:53.647Z,2.19
2023-02-26T16:08:58.645Z,2.09
2023-02-26T16:14:07.698Z,2.27
2023-02-26T16:19:17.552Z,1.82
2023-02-26T16:24:27.116Z,1.99
2023-02-26T16:29:35.854Z,1.96
2023-02-26T16:34:52.741Z,1.66
2023-02-26T16:40:10.709Z,1.69
2023-02-26T16:45:25.822Z,1.41
2023-02-26T16:50:37.251Z,1.43
2023-02-26T16:55:43.041Z,1.76
2023-02-26T17:00:50.110Z,1.58
2023-02-26T17:06:03.423Z,1.82
2023-02-26T17:11:11.739Z,1.89
2023-02-26T17:16:22.047Z,1.87
2023-02-26T17:21:29.968Z,2.03
2023-02-26T17:26:35.078Z,1.34
2023-02-26T17:31:43.740Z,1.60
2023-02-26T17:36:52.006Z,1.58
2023-02-26T17:41:56.978Z,1.36
2023-02-26T17:47:02.331Z,1.11
2023-02-26T17:52:11.885Z,1.05
2023-02-26T17:57:20.368Z,0.85
2023-02-26T18:02:27.909Z,1.02
2023-02-26T18:07:36.408Z,1.01
2023-02-26T18:12:41.380Z,1.38
2023-02-26T18:17:47.818Z,0.71
2023-02-26T18:22:58.787Z,0.46
2023-02-26T18:28:05.240Z,0.43
2023-02-26T18:33:10.382Z,0.67
2023-02-26T18:38:19.799Z,0.88
2023-02-26T18:43:27.486Z,0.59
2023-02-26T18:48:32.911Z,0.61
2023-02-26T18:53:42.207Z,0.69
2023-02-26T18:58:48.023Z,0.47
2023-02-26T19:03:54.791Z,0.73
2023-02-26T19:09:04.565Z,0.58
2023-02-26T19:14:13.005Z,0.27
2023-02-26T19:19:21.421Z,0.02
2023-02-26T19:24:33.586Z,0.28
2023-02-26T19:29:42.407Z,0.63
2023-02-26T19:34:49.579Z,0.84
2023-02-26T19:40:03.201Z,0.78
2023-02-26T19:45:10.331Z,0.69
2023-02-26T19:50:19.372Z,0.68
2023-02-26T19:55:27.935Z,0.76
2023-02-26T20:00:33.587Z,0.39
2023-02-26T20:05:41.492Z,0.33
2023-02-26T20:10:53.765Z,0.36
2023-02-26T20:16:00.705Z,0.19
2023-02-26T20:21:09.340Z,0.30
2023-02-26T20:26:19.370Z,0.02
2023-02-26T20:31:25.522Z,-0.15
2023-02-26T20:36:32.300Z,-0.30
2023-02-26T20:41:41.138Z,-0.36
2023-02-26T20:46:46.910Z,-0.45
2023-02-26T20:51:52.854Z,-0.17
2023-02-26T20:57:03.534Z,-0.33
2023-02-26T21:02:08.902Z,-0.37
2023-02-26T21:07:22.060Z,-0.63
2023-02-26T21:12:31.842Z,-0.66
2023-02-26T21:17:36.950Z,-0.82
2023-02-26T21:22:44.370Z,-0.85
2023-02-26T21:27:52.570Z,-0.55
2023-02-26T21:32:57.930Z,-0.83
2023-02-26T21:38:03.202Z,-0.50
2023-02-26T21:43:10.879Z,-0.74
2023-02-26T21:48:15.816Z,-0.77
2023-02-26T21:53:20.909Z,-0.75
2023-02-26T21:58:28.577Z,-0.91
2023-02-26T22:03:34.109Z,-0.97
2023-02-26T22:08:40.324Z,-0.95
2023-02-26T22:13:48.783Z,-1.78
2023-02-26T22:18:54.548Z,-1.81
2023-02-26T22:24:03.189Z,-1.37
2023-02-26T22:29:10.744Z,-1.88
2023-02-26T22:34:15.757Z,-2.11
2023-02-26T22:39:22.852Z,-1.69
2023-02-26T22:44:33.510Z,-1.76
2023-02-26T22:49:38.592Z,-1.74
2023-02-26T22:54:46.549Z,-1.81
2023-02-26T22:59:54.316Z,-2.08
2023-02-26T23:04:59.274Z,-2.54
2023-02-26T23:10:04.776Z,-2.67
2023-02-26T23:15:14.252Z,-2.61
2023-02-26T23:20:20.153Z,-2.30
2023-02-26T23:25:26.790Z,-2.52
2023-02-26T23:30:34.318Z,-2.39
2023-02-26T23:35:40.107Z,-2.70
2023-02-26T23:40:45.500Z,-2.70
2023-02-26T23:45:53.460Z,-2.38
2023-02-26T23:50:59.051Z,-2.10
2023-02-26T23:56:03.996Z,-2.32
